sensor_id;sensor_type;location;lat;lon;timestamp;P1;durP1;ratioP1;P2;durP2;ratioP2
4889;SDS011;2459;42.268;23.112;2022-12-18T00:01:46;16.73;;;10.63;;
4889;SDS011;2459;42.268;23.112;2022-12-18T00:04:15;24.80;;;10.30;;
4889;SDS011;2459;42.268;23.112;2022-12-18T00:06:45;18.60;;;10.80;;
4889;SDS011;2459;42.268;23.112;2022-12-18T00:09:11;16.30;;;9.60;;
4889;SDS011;2459;42.268;23.112;2022-12-18T00:11:38;17.40;;;10.37;;
4889;SDS011;2459;42.268;23.112;2022-12-18T00:14:04;15.87;;;10.00;;
4889;SDS011;2459;42.268;23.112;2022-12-18T00:16:31;9.60;;;6.40;;
4889;SDS011;2459;42.268;23.112;2022-12-18T00:19:00;11.90;;;7.70;;
4889;SDS011;2459;42.268;23.112;2022-12-18T00:21:27;11.40;;;7.00;;
4889;SDS011;2459;42.268;23.112;2022-12-18T00:23:55;10.83;;;6.53;;
4889;SDS011;2459;42.268;23.112;2022-12-18T00:26:22;18.33;;;6.80;;
4889;SDS011;2459;42.268;23.112;2022-12-18T00:28:49;10.63;;;6.47;;
4889;SDS011;2459;42.268;23.112;2022-12-18T00:31:17;10.07;;;5.93;;
4889;SDS011;2459;42.268;23.112;2022-12-18T00:33:44;10.90;;;5.67;;
4889;SDS011;2459;42.268;23.112;2022-12-18T00:36:11;14.70;;;5.63;;
4889;SDS011;2459;42.268;23.112;2022-12-18T00:38:38;6.43;;;4.50;;
4889;SDS011;2459;42.268;23.112;2022-12-18T00:41:09;10.10;;;6.00;;
4889;SDS011;2459;42.268;23.112;2022-12-18T00:43:35;14.53;;;5.80;;
4889;SDS011;2459;42.268;23.112;2022-12-18T00:46:01;8.87;;;5.03;;
4889;SDS011;2459;42.268;23.112;2022-12-18T00:48:28;10.33;;;5.33;;
4889;SDS011;2459;42.268;23.112;2022-12-18T00:50:54;4.60;;;4.20;;
4889;SDS011;2459;42.268;23.112;2022-12-18T00:53:21;6.40;;;4.83;;
4889;SDS011;2459;42.268;23.112;2022-12-18T00:55:47;7.17;;;4.80;;
4889;SDS011;2459;42.268;23.112;2022-12-18T00:58:15;5.57;;;4.37;;
4889;SDS011;2459;42.268;23.112;2022-12-18T01:00:42;6.90;;;4.63;;
4889;SDS011;2459;42.268;23.112;2022-12-18T01:03:09;10.73;;;4.20;;
4889;SDS011;2459;42.268;23.112;2022-12-18T01:05:38;7.00;;;4.30;;
4889;SDS011;2459;42.268;23.112;2022-12-18T01:08:05;6.43;;;4.50;;
4889;SDS011;2459;42.268;23.112;2022-12-18T01:10:31;5.17;;;4.43;;
4889;SDS011;2459;42.268;23.112;2022-12-18T01:12:58;6.43;;;4.60;;
4889;SDS011;2459;42.268;23.112;2022-12-18T01:15:25;22.43;;;5.50;;
4889;SDS011;2459;42.268;23.112;2022-12-18T01:17:52;8.80;;;5.00;;
4889;SDS011;2459;42.268;23.112;2022-12-18T01:20:19;4.20;;;3.80;;
4889;SDS011;2459;42.268;23.112;2022-12-18T01:22:45;6.63;;;5.13;;
4889;SDS011;2459;42.268;23.112;2022-12-18T01:25:12;3.93;;;2.80;;
4889;SDS011;2459;42.268;23.112;2022-12-18T01:27:38;5.80;;;5.20;;
4889;SDS011;2459;42.268;23.112;2022-12-18T01:30:05;7.37;;;4.43;;
4889;SDS011;2459;42.268;23.112;2022-12-18T01:32:33;6.57;;;5.20;;
4889;SDS011;2459;42.268;23.112;2022-12-18T01:35:00;8.00;;;4.47;;
4889;SDS011;2459;42.268;23.112;2022-12-18T01:37:26;10.83;;;4.90;;
4889;SDS011;2459;42.268;23.112;2022-12-18T01:39:53;7.30;;;5.20;;
4889;SDS011;2459;42.268;23.112;2022-12-18T01:42:20;6.00;;;4.63;;
4889;SDS011;2459;42.268;23.112;2022-12-18T01:45:01;7.90;;;5.13;;
4889;SDS011;2459;42.268;23.112;2022-12-18T01:47:29;10.40;;;5.07;;
4889;SDS011;2459;42.268;23.112;2022-12-18T01:49:58;6.47;;;4.63;;
4889;SDS011;2459;42.268;23.112;2022-12-18T01:52:25;7.13;;;4.00;;
4889;SDS011;2459;42.268;23.112;2022-12-18T01:54:54;5.70;;;3.57;;
4889;SDS011;2459;42.268;23.112;2022-12-18T01:57:21;5.47;;;3.33;;
4889;SDS011;2459;42.268;23.112;2022-12-18T01:59:49;11.00;;;4.30;;
4889;SDS011;2459;42.268;23.112;2022-12-18T02:02:17;8.60;;;4.57;;
4889;SDS011;2459;42.268;23.112;2022-12-18T02:04:45;9.37;;;3.97;;
4889;SDS011;2459;42.268;23.112;2022-12-18T02:07:14;8.67;;;4.50;;
4889;SDS011;2459;42.268;23.112;2022-12-18T02:09:44;9.87;;;4.43;;
4889;SDS011;2459;42.268;23.112;2022-12-18T02:12:13;5.10;;;3.77;;
4889;SDS011;2459;42.268;23.112;2022-12-18T02:14:43;5.70;;;4.27;;
4889;SDS011;2459;42.268;23.112;2022-12-18T02:17:11;5.40;;;4.23;;
4889;SDS011;2459;42.268;23.112;2022-12-18T02:19:44;5.97;;;4.50;;
4889;SDS011;2459;42.268;23.112;2022-12-18T02:22:16;4.70;;;4.00;;
4889;SDS011;2459;42.268;23.112;2022-12-18T02:24:48;6.60;;;4.60;;
4889;SDS011;2459;42.268;23.112;2022-12-18T02:27:20;4.80;;;3.20;;
4889;SDS011;2459;42.268;23.112;2022-12-18T02:29:48;5.17;;;3.50;;
4889;SDS011;2459;42.268;23.112;2022-12-18T02:32:17;5.53;;;4.20;;
4889;SDS011;2459;42.268;23.112;2022-12-18T02:34:44;5.60;;;4.20;;
4889;SDS011;2459;42.268;23.112;2022-12-18T02:37:12;4.10;;;3.70;;
4889;SDS011;2459;42.268;23.112;2022-12-18T02:39:41;13.27;;;4.90;;
4889;SDS011;2459;42.268;23.112;2022-12-18T02:42:08;5.67;;;3.80;;
4889;SDS011;2459;42.268;23.112;2022-12-18T02:44:39;6.03;;;4.17;;
4889;SDS011;2459;42.268;23.112;2022-12-18T02:47:08;3.60;;;3.23;;
4889;SDS011;2459;42.268;23.112;2022-12-18T02:49:36;5.97;;;4.20;;
4889;SDS011;2459;42.268;23.112;2022-12-18T02:52:08;8.97;;;5.00;;
4889;SDS011;2459;42.268;23.112;2022-12-18T02:54:38;3.50;;;3.20;;
4889;SDS011;2459;42.268;23.112;2022-12-18T02:57:10;5.33;;;3.60;;
4889;SDS011;2459;42.268;23.112;2022-12-18T02:59:40;6.57;;;4.73;;
4889;SDS011;2459;42.268;23.112;2022-12-18T03:02:10;7.00;;;4.33;;
4889;SDS011;2459;42.268;23.112;2022-12-18T03:04:43;6.83;;;4.90;;
4889;SDS011;2459;42.268;23.112;2022-12-18T03:07:13;5.63;;;4.17;;
4889;SDS011;2459;42.268;23.112;2022-12-18T03:09:42;6.77;;;5.37;;
4889;SDS011;2459;42.268;23.112;2022-12-18T03:12:10;7.37;;;5.50;;
4889;SDS011;2459;42.268;23.112;2022-12-18T03:14:52;7.10;;;4.70;;
4889;SDS011;2459;42.268;23.112;2022-12-18T03:17:20;5.53;;;4.53;;
4889;SDS011;2459;42.268;23.112;2022-12-18T03:19:49;7.90;;;5.63;;
4889;SDS011;2459;42.268;23.112;2022-12-18T03:22:17;7.20;;;5.40;;
4889;SDS011;2459;42.268;23.112;2022-12-18T03:24:44;8.27;;;5.07;;
4889;SDS011;2459;42.268;23.112;2022-12-18T03:27:12;5.27;;;3.93;;
4889;SDS011;2459;42.268;23.112;2022-12-18T03:29:40;11.13;;;4.90;;
4889;SDS011;2459;42.268;23.112;2022-12-18T03:32:11;15.50;;;8.20;;
4889;SDS011;2459;42.268;23.112;2022-12-18T03:34:39;7.63;;;4.77;;
4889;SDS011;2459;42.268;23.112;2022-12-18T03:37:07;6.60;;;5.30;;
4889;SDS011;2459;42.268;23.112;2022-12-18T03:39:35;6.77;;;3.80;;
4889;SDS011;2459;42.268;23.112;2022-12-18T03:42:04;8.00;;;4.60;;
4889;SDS011;2459;42.268;23.112;2022-12-18T03:44:33;23.40;;;5.40;;
4889;SDS011;2459;42.268;23.112;2022-12-18T03:47:03;3.90;;;2.87;;
4889;SDS011;2459;42.268;23.112;2022-12-18T03:49:35;4.77;;;3.53;;
4889;SDS011;2459;42.268;23.112;2022-12-18T03:52:03;6.37;;;4.57;;
4889;SDS011;2459;42.268;23.112;2022-12-18T03:54:30;5.37;;;3.90;;
4889;SDS011;2459;42.268;23.112;2022-12-18T03:56:58;5.70;;;3.90;;
4889;SDS011;2459;42.268;23.112;2022-12-18T03:59:26;8.03;;;5.30;;
4889;SDS011;2459;42.268;23.112;2022-12-18T04:01:53;9.40;;;4.97;;
4889;SDS011;2459;42.268;23.112;2022-12-18T04:04:21;8.43;;;4.03;;
4889;SDS011;2459;42.268;23.112;2022-12-18T04:06:49;3.80;;;3.40;;
4889;SDS011;2459;42.268;23.112;2022-12-18T04:09:16;11.00;;;4.90;;
4889;SDS011;2459;42.268;23.112;2022-12-18T04:11:42;5.17;;;2.73;;
4889;SDS011;2459;42.268;23.112;2022-12-18T04:14:09;3.93;;;2.90;;
4889;SDS011;2459;42.268;23.112;2022-12-18T04:16:36;4.13;;;3.37;;
4889;SDS011;2459;42.268;23.112;2022-12-18T04:19:02;6.53;;;3.90;;
4889;SDS011;2459;42.268;23.112;2022-12-18T04:21:29;5.70;;;4.30;;
4889;SDS011;2459;42.268;23.112;2022-12-18T04:23:57;5.17;;;4.30;;
4889;SDS011;2459;42.268;23.112;2022-12-18T04:26:23;9.27;;;5.00;;
4889;SDS011;2459;42.268;23.112;2022-12-18T04:28:50;11.57;;;5.70;;
4889;SDS011;2459;42.268;23.112;2022-12-18T04:31:16;22.80;;;7.93;;
4889;SDS011;2459;42.268;23.112;2022-12-18T04:33:43;24.30;;;9.83;;
4889;SDS011;2459;42.268;23.112;2022-12-18T04:36:09;8.43;;;3.90;;
4889;SDS011;2459;42.268;23.112;2022-12-18T04:38:37;6.93;;;4.30;;
4889;SDS011;2459;42.268;23.112;2022-12-18T04:41:05;3.93;;;3.40;;
4889;SDS011;2459;42.268;23.112;2022-12-18T04:43:31;4.90;;;3.90;;
4889;SDS011;2459;42.268;23.112;2022-12-18T04:46:02;4.93;;;3.53;;
4889;SDS011;2459;42.268;23.112;2022-12-18T04:48:29;9.33;;;4.70;;
4889;SDS011;2459;42.268;23.112;2022-12-18T04:50:55;6.77;;;3.30;;
4889;SDS011;2459;42.268;23.112;2022-12-18T04:53:22;7.73;;;4.70;;
4889;SDS011;2459;42.268;23.112;2022-12-18T04:55:48;8.70;;;4.20;;
4889;SDS011;2459;42.268;23.112;2022-12-18T04:58:16;1.83;;;1.47;;
4889;SDS011;2459;42.268;23.112;2022-12-18T05:00:43;6.00;;;3.20;;
4889;SDS011;2459;42.268;23.112;2022-12-18T05:03:09;3.47;;;3.10;;
4889;SDS011;2459;42.268;23.112;2022-12-18T05:05:36;7.27;;;4.00;;
4889;SDS011;2459;42.268;23.112;2022-12-18T05:08:02;4.47;;;3.47;;
4889;SDS011;2459;42.268;23.112;2022-12-18T05:10:29;8.27;;;4.10;;
4889;SDS011;2459;42.268;23.112;2022-12-18T05:12:55;5.37;;;3.83;;
4889;SDS011;2459;42.268;23.112;2022-12-18T05:15:27;5.57;;;2.97;;
4889;SDS011;2459;42.268;23.112;2022-12-18T05:17:54;6.77;;;4.37;;
4889;SDS011;2459;42.268;23.112;2022-12-18T05:20:20;5.40;;;3.50;;
4889;SDS011;2459;42.268;23.112;2022-12-18T05:22:47;6.00;;;3.83;;
4889;SDS011;2459;42.268;23.112;2022-12-18T05:25:13;5.87;;;4.53;;
4889;SDS011;2459;42.268;23.112;2022-12-18T05:27:40;10.63;;;5.00;;
4889;SDS011;2459;42.268;23.112;2022-12-18T05:30:07;7.00;;;4.70;;
4889;SDS011;2459;42.268;23.112;2022-12-18T05:32:35;6.77;;;4.90;;
4889;SDS011;2459;42.268;23.112;2022-12-18T05:35:01;11.40;;;4.97;;
4889;SDS011;2459;42.268;23.112;2022-12-18T05:37:28;7.87;;;4.60;;
4889;SDS011;2459;42.268;23.112;2022-12-18T05:39:54;3.47;;;3.17;;
4889;SDS011;2459;42.268;23.112;2022-12-18T05:42:21;7.63;;;4.20;;
4889;SDS011;2459;42.268;23.112;2022-12-18T05:44:47;5.30;;;4.40;;
4889;SDS011;2459;42.268;23.112;2022-12-18T05:47:14;12.80;;;4.73;;
4889;SDS011;2459;42.268;23.112;2022-12-18T05:49:42;10.17;;;4.90;;
4889;SDS011;2459;42.268;23.112;2022-12-18T05:52:08;7.43;;;4.57;;
4889;SDS011;2459;42.268;23.112;2022-12-18T05:54:35;6.37;;;4.13;;
4889;SDS011;2459;42.268;23.112;2022-12-18T05:57:01;10.00;;;4.33;;
4889;SDS011;2459;42.268;23.112;2022-12-18T05:59:28;7.97;;;4.67;;
4889;SDS011;2459;42.268;23.112;2022-12-18T06:01:54;8.27;;;4.20;;
4889;SDS011;2459;42.268;23.112;2022-12-18T06:04:21;7.30;;;4.70;;
4889;SDS011;2459;42.268;23.112;2022-12-18T06:06:49;10.70;;;5.63;;
4889;SDS011;2459;42.268;23.112;2022-12-18T06:09:15;9.53;;;5.50;;
4889;SDS011;2459;42.268;23.112;2022-12-18T06:11:41;8.00;;;5.50;;
4889;SDS011;2459;42.268;23.112;2022-12-18T06:14:08;5.97;;;4.20;;
4889;SDS011;2459;42.268;23.112;2022-12-18T06:16:35;8.50;;;4.50;;
4889;SDS011;2459;42.268;23.112;2022-12-18T06:19:02;11.07;;;6.10;;
4889;SDS011;2459;42.268;23.112;2022-12-18T06:21:29;7.33;;;5.20;;
4889;SDS011;2459;42.268;23.112;2022-12-18T06:23:57;9.20;;;5.77;;
4889;SDS011;2459;42.268;23.112;2022-12-18T06:26:24;5.80;;;4.30;;
4889;SDS011;2459;42.268;23.112;2022-12-18T06:28:50;5.37;;;4.20;;
4889;SDS011;2459;42.268;23.112;2022-12-18T06:31:17;7.73;;;5.40;;
4889;SDS011;2459;42.268;23.112;2022-12-18T06:33:43;7.43;;;5.40;;
4889;SDS011;2459;42.268;23.112;2022-12-18T06:36:10;14.50;;;5.40;;
4889;SDS011;2459;42.268;23.112;2022-12-18T06:38:39;6.20;;;5.13;;
4889;SDS011;2459;42.268;23.112;2022-12-18T06:41:07;8.10;;;4.83;;
4889;SDS011;2459;42.268;23.112;2022-12-18T06:43:34;9.60;;;6.07;;
4889;SDS011;2459;42.268;23.112;2022-12-18T06:46:02;10.30;;;6.20;;
4889;SDS011;2459;42.268;23.112;2022-12-18T06:48:28;11.20;;;6.27;;
4889;SDS011;2459;42.268;23.112;2022-12-18T06:50:55;21.20;;;6.50;;
4889;SDS011;2459;42.268;23.112;2022-12-18T06:53:21;9.97;;;5.87;;
4889;SDS011;2459;42.268;23.112;2022-12-18T06:55:48;19.53;;;6.77;;
4889;SDS011;2459;42.268;23.112;2022-12-18T06:58:16;13.97;;;7.00;;
4889;SDS011;2459;42.268;23.112;2022-12-18T07:00:43;13.83;;;5.83;;
4889;SDS011;2459;42.268;23.112;2022-12-18T07:03:09;15.40;;;7.17;;
4889;SDS011;2459;42.268;23.112;2022-12-18T07:05:39;13.07;;;7.47;;
4889;SDS011;2459;42.268;23.112;2022-12-18T07:08:05;11.00;;;5.90;;
4889;SDS011;2459;42.268;23.112;2022-12-18T07:10:32;9.60;;;5.70;;
4889;SDS011;2459;42.268;23.112;2022-12-18T07:12:58;9.37;;;5.30;;
4889;SDS011;2459;42.268;23.112;2022-12-18T07:15:26;9.73;;;6.23;;
4889;SDS011;2459;42.268;23.112;2022-12-18T07:17:52;8.33;;;6.37;;
4889;SDS011;2459;42.268;23.112;2022-12-18T07:20:19;12.80;;;7.47;;
4889;SDS011;2459;42.268;23.112;2022-12-18T07:22:45;12.13;;;6.73;;
4889;SDS011;2459;42.268;23.112;2022-12-18T07:25:12;11.10;;;5.90;;
4889;SDS011;2459;42.268;23.112;2022-12-18T07:27:39;13.30;;;6.60;;
4889;SDS011;2459;42.268;23.112;2022-12-18T07:30:06;12.10;;;5.57;;
4889;SDS011;2459;42.268;23.112;2022-12-18T07:32:34;11.83;;;6.27;;
4889;SDS011;2459;42.268;23.112;2022-12-18T07:35:00;8.50;;;5.27;;
4889;SDS011;2459;42.268;23.112;2022-12-18T07:37:27;11.60;;;7.10;;
4889;SDS011;2459;42.268;23.112;2022-12-18T07:39:53;8.80;;;5.43;;
4889;SDS011;2459;42.268;23.112;2022-12-18T07:42:20;15.00;;;7.60;;
4889;SDS011;2459;42.268;23.112;2022-12-18T07:44:58;19.43;;;8.10;;
4889;SDS011;2459;42.268;23.112;2022-12-18T07:47:25;11.03;;;7.20;;
4889;SDS011;2459;42.268;23.112;2022-12-18T07:49:53;30.20;;;9.20;;
4889;SDS011;2459;42.268;23.112;2022-12-18T07:52:20;34.63;;;9.43;;
4889;SDS011;2459;42.268;23.112;2022-12-18T07:54:46;9.27;;;6.53;;
4889;SDS011;2459;42.268;23.112;2022-12-18T07:57:14;15.60;;;9.03;;
4889;SDS011;2459;42.268;23.112;2022-12-18T07:59:40;14.40;;;7.63;;
4889;SDS011;2459;42.268;23.112;2022-12-18T08:02:07;13.13;;;8.20;;
4889;SDS011;2459;42.268;23.112;2022-12-18T08:04:35;10.60;;;6.93;;
4889;SDS011;2459;42.268;23.112;2022-12-18T08:07:03;23.47;;;8.87;;
4889;SDS011;2459;42.268;23.112;2022-12-18T08:09:29;15.90;;;8.83;;
4889;SDS011;2459;42.268;23.112;2022-12-18T08:11:56;13.37;;;8.83;;
4889;SDS011;2459;42.268;23.112;2022-12-18T08:14:22;21.00;;;10.67;;
4889;SDS011;2459;42.268;23.112;2022-12-18T08:16:49;17.47;;;9.30;;
4889;SDS011;2459;42.268;23.112;2022-12-18T08:19:15;17.80;;;9.87;;
4889;SDS011;2459;42.268;23.112;2022-12-18T08:21:42;12.97;;;8.20;;
4889;SDS011;2459;42.268;23.112;2022-12-18T08:24:10;10.13;;;7.20;;
4889;SDS011;2459;42.268;23.112;2022-12-18T08:26:37;22.07;;;10.50;;
4889;SDS011;2459;42.268;23.112;2022-12-18T08:29:03;17.10;;;7.87;;
4889;SDS011;2459;42.268;23.112;2022-12-18T08:31:30;12.30;;;7.33;;
4889;SDS011;2459;42.268;23.112;2022-12-18T08:33:57;10.17;;;6.47;;
4889;SDS011;2459;42.268;23.112;2022-12-18T08:36:24;13.57;;;6.53;;
4889;SDS011;2459;42.268;23.112;2022-12-18T08:38:51;17.57;;;8.27;;
4889;SDS011;2459;42.268;23.112;2022-12-18T08:41:19;14.37;;;6.00;;
4889;SDS011;2459;42.268;23.112;2022-12-18T08:43:46;15.83;;;6.77;;
4889;SDS011;2459;42.268;23.112;2022-12-18T08:46:38;19.50;;;9.90;;
4889;SDS011;2459;42.268;23.112;2022-12-18T08:49:06;19.13;;;9.30;;
4889;SDS011;2459;42.268;23.112;2022-12-18T08:51:32;15.87;;;8.40;;
4889;SDS011;2459;42.268;23.112;2022-12-18T08:53:59;13.60;;;8.57;;
4889;SDS011;2459;42.268;23.112;2022-12-18T08:56:27;16.17;;;7.83;;
4889;SDS011;2459;42.268;23.112;2022-12-18T08:58:55;12.87;;;7.03;;
4889;SDS011;2459;42.268;23.112;2022-12-18T09:01:21;9.97;;;4.30;;
4889;SDS011;2459;42.268;23.112;2022-12-18T09:03:49;21.17;;;7.57;;
4889;SDS011;2459;42.268;23.112;2022-12-18T09:06:16;19.93;;;7.23;;
4889;SDS011;2459;42.268;23.112;2022-12-18T09:08:44;18.30;;;7.70;;
4889;SDS011;2459;42.268;23.112;2022-12-18T09:11:14;19.63;;;9.67;;
4889;SDS011;2459;42.268;23.112;2022-12-18T09:13:42;14.83;;;7.20;;
4889;SDS011;2459;42.268;23.112;2022-12-18T09:16:11;18.17;;;6.40;;
4889;SDS011;2459;42.268;23.112;2022-12-18T09:18:40;15.63;;;9.70;;
4889;SDS011;2459;42.268;23.112;2022-12-18T09:21:07;26.53;;;12.10;;
4889;SDS011;2459;42.268;23.112;2022-12-18T09:23:34;14.87;;;7.77;;
4889;SDS011;2459;42.268;23.112;2022-12-18T09:26:00;25.60;;;10.13;;
4889;SDS011;2459;42.268;23.112;2022-12-18T09:28:27;24.03;;;11.10;;
4889;SDS011;2459;42.268;23.112;2022-12-18T09:30:55;11.70;;;5.40;;
4889;SDS011;2459;42.268;23.112;2022-12-18T09:33:22;14.90;;;7.90;;
4889;SDS011;2459;42.268;23.112;2022-12-18T09:35:49;13.70;;;7.53;;
4889;SDS011;2459;42.268;23.112;2022-12-18T09:38:16;10.53;;;5.70;;
4889;SDS011;2459;42.268;23.112;2022-12-18T09:40:44;12.70;;;6.30;;
4889;SDS011;2459;42.268;23.112;2022-12-18T09:43:13;17.63;;;7.63;;
4889;SDS011;2459;42.268;23.112;2022-12-18T09:45:42;8.00;;;3.83;;
4889;SDS011;2459;42.268;23.112;2022-12-18T09:48:13;21.33;;;11.40;;
4889;SDS011;2459;42.268;23.112;2022-12-18T09:50:42;15.33;;;9.40;;
4889;SDS011;2459;42.268;23.112;2022-12-18T09:53:10;15.40;;;8.53;;
4889;SDS011;2459;42.268;23.112;2022-12-18T09:55:39;13.77;;;8.27;;
4889;SDS011;2459;42.268;23.112;2022-12-18T09:58:06;15.60;;;7.90;;
4889;SDS011;2459;42.268;23.112;2022-12-18T10:00:34;18.87;;;9.10;;
4889;SDS011;2459;42.268;23.112;2022-12-18T10:03:00;20.93;;;10.80;;
4889;SDS011;2459;42.268;23.112;2022-12-18T10:05:32;20.47;;;11.53;;
4889;SDS011;2459;42.268;23.112;2022-12-18T10:08:01;22.37;;;11.30;;
4889;SDS011;2459;42.268;23.112;2022-12-18T10:10:32;20.80;;;10.30;;
4889;SDS011;2459;42.268;23.112;2022-12-18T10:13:03;18.80;;;11.10;;
4889;SDS011;2459;42.268;23.112;2022-12-18T10:15:34;15.03;;;8.80;;
4889;SDS011;2459;42.268;23.112;2022-12-18T10:18:05;15.40;;;9.30;;
4889;SDS011;2459;42.268;23.112;2022-12-18T10:20:35;11.63;;;5.37;;
4889;SDS011;2459;42.268;23.112;2022-12-18T10:23:08;23.00;;;12.07;;
4889;SDS011;2459;42.268;23.112;2022-12-18T10:25:44;23.93;;;10.50;;
4889;SDS011;2459;42.268;23.112;2022-12-18T10:28:14;7.33;;;5.40;;
4889;SDS011;2459;42.268;23.112;2022-12-18T10:30:41;16.33;;;7.97;;
4889;SDS011;2459;42.268;23.112;2022-12-18T10:33:09;18.07;;;10.10;;
4889;SDS011;2459;42.268;23.112;2022-12-18T10:35:43;21.67;;;10.40;;
4889;SDS011;2459;42.268;23.112;2022-12-18T10:38:20;15.73;;;9.23;;
4889;SDS011;2459;42.268;23.112;2022-12-18T10:40:48;24.60;;;11.03;;
4889;SDS011;2459;42.268;23.112;2022-12-18T10:43:16;14.50;;;8.70;;
4889;SDS011;2459;42.268;23.112;2022-12-18T10:45:57;18.10;;;9.70;;
4889;SDS011;2459;42.268;23.112;2022-12-18T10:48:25;17.40;;;9.93;;
4889;SDS011;2459;42.268;23.112;2022-12-18T10:50:54;20.63;;;9.87;;
4889;SDS011;2459;42.268;23.112;2022-12-18T10:53:22;37.20;;;12.60;;
4889;SDS011;2459;42.268;23.112;2022-12-18T10:55:49;17.93;;;8.67;;
4889;SDS011;2459;42.268;23.112;2022-12-18T10:58:16;14.63;;;9.07;;
4889;SDS011;2459;42.268;23.112;2022-12-18T11:00:51;18.03;;;9.67;;
4889;SDS011;2459;42.268;23.112;2022-12-18T11:03:31;20.60;;;10.40;;
4889;SDS011;2459;42.268;23.112;2022-12-18T11:06:03;20.17;;;11.30;;
4889;SDS011;2459;42.268;23.112;2022-12-18T11:08:30;25.60;;;10.07;;
4889;SDS011;2459;42.268;23.112;2022-12-18T11:10:56;17.40;;;9.00;;
4889;SDS011;2459;42.268;23.112;2022-12-18T11:13:25;16.20;;;9.23;;
4889;SDS011;2459;42.268;23.112;2022-12-18T11:15:52;15.93;;;8.70;;
4889;SDS011;2459;42.268;23.112;2022-12-18T11:18:19;20.13;;;10.40;;
4889;SDS011;2459;42.268;23.112;2022-12-18T11:20:50;15.10;;;8.73;;
4889;SDS011;2459;42.268;23.112;2022-12-18T11:23:18;17.60;;;10.73;;
4889;SDS011;2459;42.268;23.112;2022-12-18T11:25:50;18.47;;;10.87;;
4889;SDS011;2459;42.268;23.112;2022-12-18T11:28:25;23.93;;;10.63;;
4889;SDS011;2459;42.268;23.112;2022-12-18T11:31:02;12.00;;;7.07;;
4889;SDS011;2459;42.268;23.112;2022-12-18T11:33:34;24.93;;;10.53;;
4889;SDS011;2459;42.268;23.112;2022-12-18T11:36:02;13.90;;;6.17;;
4889;SDS011;2459;42.268;23.112;2022-12-18T11:38:30;24.50;;;10.93;;
4889;SDS011;2459;42.268;23.112;2022-12-18T11:40:59;20.10;;;8.27;;
4889;SDS011;2459;42.268;23.112;2022-12-18T11:43:27;14.43;;;8.97;;
4889;SDS011;2459;42.268;23.112;2022-12-18T11:45:58;19.30;;;10.33;;
4889;SDS011;2459;42.268;23.112;2022-12-18T11:48:26;13.23;;;7.73;;
4889;SDS011;2459;42.268;23.112;2022-12-18T11:50:54;20.40;;;10.87;;
4889;SDS011;2459;42.268;23.112;2022-12-18T11:53:21;19.17;;;10.40;;
4889;SDS011;2459;42.268;23.112;2022-12-18T11:55:56;19.53;;;10.80;;
4889;SDS011;2459;42.268;23.112;2022-12-18T11:58:29;19.90;;;11.40;;
4889;SDS011;2459;42.268;23.112;2022-12-18T12:00:58;8.70;;;5.00;;
4889;SDS011;2459;42.268;23.112;2022-12-18T12:06:17;17.70;;;9.30;;
4889;SDS011;2459;42.268;23.112;2022-12-18T12:08:52;19.43;;;9.87;;
4889;SDS011;2459;42.268;23.112;2022-12-18T12:11:25;45.23;;;19.80;;
4889;SDS011;2459;42.268;23.112;2022-12-18T12:13:56;16.90;;;9.10;;
4889;SDS011;2459;42.268;23.112;2022-12-18T12:16:27;18.87;;;11.00;;
4889;SDS011;2459;42.268;23.112;2022-12-18T12:19:06;18.23;;;10.67;;
4889;SDS011;2459;42.268;23.112;2022-12-18T12:21:35;29.90;;;13.87;;
4889;SDS011;2459;42.268;23.112;2022-12-18T12:24:03;22.27;;;9.70;;
4889;SDS011;2459;42.268;23.112;2022-12-18T12:26:35;18.00;;;7.57;;
4889;SDS011;2459;42.268;23.112;2022-12-18T12:29:13;22.17;;;10.10;;
4889;SDS011;2459;42.268;23.112;2022-12-18T12:31:50;14.63;;;7.90;;
4889;SDS011;2459;42.268;23.112;2022-12-18T12:34:20;16.07;;;6.57;;
4889;SDS011;2459;42.268;23.112;2022-12-18T12:36:53;17.20;;;10.30;;
4889;SDS011;2459;42.268;23.112;2022-12-18T12:39:25;19.97;;;8.27;;
4889;SDS011;2459;42.268;23.112;2022-12-18T12:41:54;22.07;;;9.30;;
4889;SDS011;2459;42.268;23.112;2022-12-18T12:44:39;9.63;;;6.53;;
4889;SDS011;2459;42.268;23.112;2022-12-18T12:47:09;25.90;;;8.90;;
4889;SDS011;2459;42.268;23.112;2022-12-18T12:49:36;21.50;;;11.60;;
4889;SDS011;2459;42.268;23.112;2022-12-18T12:52:04;19.50;;;8.47;;
4889;SDS011;2459;42.268;23.112;2022-12-18T12:54:31;28.17;;;10.17;;
4889;SDS011;2459;42.268;23.112;2022-12-18T12:57:02;17.57;;;10.10;;
4889;SDS011;2459;42.268;23.112;2022-12-18T12:59:34;15.20;;;7.20;;
4889;SDS011;2459;42.268;23.112;2022-12-18T13:02:05;23.80;;;9.10;;
4889;SDS011;2459;42.268;23.112;2022-12-18T13:04:38;18.77;;;8.23;;
4889;SDS011;2459;42.268;23.112;2022-12-18T13:07:06;19.80;;;10.00;;
4889;SDS011;2459;42.268;23.112;2022-12-18T13:10:12;28.40;;;12.23;;
4889;SDS011;2459;42.268;23.112;2022-12-18T13:12:24;17.53;;;7.20;;
4889;SDS011;2459;42.268;23.112;2022-12-18T13:15:11;14.90;;;7.40;;
4889;SDS011;2459;42.268;23.112;2022-12-18T13:17:39;18.57;;;9.00;;
4889;SDS011;2459;42.268;23.112;2022-12-18T13:20:07;23.07;;;10.70;;
4889;SDS011;2459;42.268;23.112;2022-12-18T13:22:35;31.43;;;9.60;;
4889;SDS011;2459;42.268;23.112;2022-12-18T13:25:01;25.57;;;10.60;;
4889;SDS011;2459;42.268;23.112;2022-12-18T13:30:42;23.27;;;11.30;;
4889;SDS011;2459;42.268;23.112;2022-12-18T13:36:00;20.83;;;10.60;;
4889;SDS011;2459;42.268;23.112;2022-12-18T13:38:32;25.80;;;11.07;;
4889;SDS011;2459;42.268;23.112;2022-12-18T13:40:59;20.87;;;10.10;;
4889;SDS011;2459;42.268;23.112;2022-12-18T13:43:30;21.63;;;9.80;;
4889;SDS011;2459;42.268;23.112;2022-12-18T13:46:06;20.87;;;10.00;;
4889;SDS011;2459;42.268;23.112;2022-12-18T13:48:43;12.40;;;7.10;;
4889;SDS011;2459;42.268;23.112;2022-12-18T13:51:16;19.57;;;8.00;;
4889;SDS011;2459;42.268;23.112;2022-12-18T13:53:44;18.60;;;8.53;;
4889;SDS011;2459;42.268;23.112;2022-12-18T13:56:15;10.00;;;6.03;;
4889;SDS011;2459;42.268;23.112;2022-12-18T13:58:44;20.57;;;8.40;;
4889;SDS011;2459;42.268;23.112;2022-12-18T14:01:22;24.03;;;9.30;;
4889;SDS011;2459;42.268;23.112;2022-12-18T14:03:49;17.93;;;9.83;;
4889;SDS011;2459;42.268;23.112;2022-12-18T14:06:18;17.07;;;8.57;;
4889;SDS011;2459;42.268;23.112;2022-12-18T14:08:44;19.30;;;10.30;;
4889;SDS011;2459;42.268;23.112;2022-12-18T14:11:18;16.90;;;8.33;;
4889;SDS011;2459;42.268;23.112;2022-12-18T14:13:45;24.43;;;10.50;;
4889;SDS011;2459;42.268;23.112;2022-12-18T14:16:13;35.33;;;9.80;;
4889;SDS011;2459;42.268;23.112;2022-12-18T14:18:43;21.13;;;10.20;;
4889;SDS011;2459;42.268;23.112;2022-12-18T14:21:18;15.50;;;8.20;;
4889;SDS011;2459;42.268;23.112;2022-12-18T14:23:46;19.30;;;9.53;;
4889;SDS011;2459;42.268;23.112;2022-12-18T14:26:22;20.63;;;10.83;;
4889;SDS011;2459;42.268;23.112;2022-12-18T14:28:50;18.83;;;10.10;;
4889;SDS011;2459;42.268;23.112;2022-12-18T14:31:17;21.93;;;10.60;;
4889;SDS011;2459;42.268;23.112;2022-12-18T14:33:45;21.70;;;9.73;;
4889;SDS011;2459;42.268;23.112;2022-12-18T14:36:14;19.60;;;10.53;;
4889;SDS011;2459;42.268;23.112;2022-12-18T14:38:42;19.70;;;10.33;;
4889;SDS011;2459;42.268;23.112;2022-12-18T14:41:10;18.50;;;9.07;;
4889;SDS011;2459;42.268;23.112;2022-12-18T14:43:37;18.87;;;9.70;;
4889;SDS011;2459;42.268;23.112;2022-12-18T14:46:05;18.63;;;9.30;;
4889;SDS011;2459;42.268;23.112;2022-12-18T14:48:35;19.73;;;10.50;;
4889;SDS011;2459;42.268;23.112;2022-12-18T14:51:04;27.90;;;11.73;;
4889;SDS011;2459;42.268;23.112;2022-12-18T14:53:33;32.10;;;11.80;;
4889;SDS011;2459;42.268;23.112;2022-12-18T14:56:00;20.10;;;8.87;;
4889;SDS011;2459;42.268;23.112;2022-12-18T14:58:27;22.73;;;12.27;;
4889;SDS011;2459;42.268;23.112;2022-12-18T15:00:53;20.93;;;10.93;;
4889;SDS011;2459;42.268;23.112;2022-12-18T15:03:20;51.53;;;21.73;;
4889;SDS011;2459;42.268;23.112;2022-12-18T15:05:47;30.37;;;13.70;;
4889;SDS011;2459;42.268;23.112;2022-12-18T15:08:26;29.37;;;12.03;;